sensor_id;sensor_type;location;lat;lon;timestamp;temperature;humidity
8565;DHT22;4320;51.498;6.556;2022-12-18T00:00:58;-1.80;99.90
8565;DHT22;4320;51.498;6.556;2022-12-18T00:03:24;-1.90;99.90
8565;DHT22;4320;51.498;6.556;2022-12-18T00:05:51;-1.90;99.90
8565;DHT22;4320;51.498;6.556;2022-12-18T00:08:18;-1.90;99.90
8565;DHT22;4320;51.498;6.556;2022-12-18T00:10:45;-1.80;99.90
8565;DHT22;4320;51.498;6.556;2022-12-18T00:13:11;-1.90;99.90
8565;DHT22;4320;51.498;6.556;2022-12-18T00:15:38;-1.90;99.90
8565;DHT22;4320;51.498;6.556;2022-12-18T00:18:04;-1.90;99.90
8565;DHT22;4320;51.498;6.556;2022-12-18T00:20:30;-1.90;99.90
8565;DHT22;4320;51.498;6.556;2022-12-18T00:22:56;-1.90;99.90
8565;DHT22;4320;51.498;6.556;2022-12-18T00:25:22;-1.90;99.90
8565;DHT22;4320;51.498;6.556;2022-12-18T00:27:48;-1.90;99.90
8565;DHT22;4320;51.498;6.556;2022-12-18T00:30:14;-2.00;99.90
8565;DHT22;4320;51.498;6.556;2022-12-18T00:32:40;-2.00;99.90
8565;DHT22;4320;51.498;6.556;2022-12-18T00:35:06;-2.00;99.90
8565;DHT22;4320;51.498;6.556;2022-12-18T00:37:35;-2.10;99.90
8565;DHT22;4320;51.498;6.556;2022-12-18T00:40:01;-2.10;99.90
8565;DHT22;4320;51.498;6.556;2022-12-18T00:42:27;-2.10;99.90
8565;DHT22;4320;51.498;6.556;2022-12-18T00:45:11;-2.20;99.90
8565;DHT22;4320;51.498;6.556;2022-12-18T00:47:36;-2.20;99.90
8565;DHT22;4320;51.498;6.556;2022-12-18T00:50:02;-2.10;99.90
8565;DHT22;4320;51.498;6.556;2022-12-18T00:52:28;-2.10;99.90
8565;DHT22;4320;51.498;6.556;2022-12-18T00:54:54;-2.10;99.90
8565;DHT22;4320;51.498;6.556;2022-12-18T00:57:19;-2.10;99.90
8565;DHT22;4320;51.498;6.556;2022-12-18T00:59:45;-2.10;99.90
8565;DHT22;4320;51.498;6.556;2022-12-18T01:02:10;-2.10;99.90
8565;DHT22;4320;51.498;6.556;2022-12-18T01:04:39;-2.10;99.90
8565;DHT22;4320;51.498;6.556;2022-12-18T01:07:04;-2.00;99.90
8565;DHT22;4320;51.498;6.556;2022-12-18T01:09:30;-2.00;99.90
8565;DHT22;4320;51.498;6.556;2022-12-18T01:11:56;-1.90;99.90
8565;DHT22;4320;51.498;6.556;2022-12-18T01:14:21;-1.90;99.90
8565;DHT22;4320;51.498;6.556;2022-12-18T01:16:47;-1.90;99.90
8565;DHT22;4320;51.498;6.556;2022-12-18T01:19:13;-1.90;99.90
8565;DHT22;4320;51.498;6.556;2022-12-18T01:21:38;-2.00;99.90
8565;DHT22;4320;51.498;6.556;2022-12-18T01:24:04;-2.00;99.90
8565;DHT22;4320;51.498;6.556;2022-12-18T01:26:30;-1.90;99.90
8565;DHT22;4320;51.498;6.556;2022-12-18T01:28:56;-1.90;99.90
8565;DHT22;4320;51.498;6.556;2022-12-18T01:31:29;-1.80;99.90
8565;DHT22;4320;51.498;6.556;2022-12-18T01:33:56;-1.90;99.90
8565;DHT22;4320;51.498;6.556;2022-12-18T01:36:22;-1.90;99.90
8565;DHT22;4320;51.498;6.556;2022-12-18T01:38:49;-1.80;99.90
8565;DHT22;4320;51.498;6.556;2022-12-18T01:41:23;-1.90;99.90
8565;DHT22;4320;51.498;6.556;2022-12-18T01:46:20;-1.90;99.90
8565;DHT22;4320;51.498;6.556;2022-12-18T01:48:52;-1.90;99.90
8565;DHT22;4320;51.498;6.556;2022-12-18T01:51:19;-2.00;99.90
8565;DHT22;4320;51.498;6.556;2022-12-18T01:53:46;-2.10;99.90
8565;DHT22;4320;51.498;6.556;2022-12-18T01:56:17;-2.00;99.90
8565;DHT22;4320;51.498;6.556;2022-12-18T01:59:00;-2.00;99.90
8565;DHT22;4320;51.498;6.556;2022-12-18T02:01:29;-2.00;99.90
8565;DHT22;4320;51.498;6.556;2022-12-18T02:03:56;-2.00;99.90
8565;DHT22;4320;51.498;6.556;2022-12-18T02:06:29;-2.00;99.90
8565;DHT22;4320;51.498;6.556;2022-12-18T02:11:57;-2.00;99.90
8565;DHT22;4320;51.498;6.556;2022-12-18T02:20:12;-2.10;99.90
8565;DHT22;4320;51.498;6.556;2022-12-18T02:23:20;-2.10;99.90
8565;DHT22;4320;51.498;6.556;2022-12-18T02:26:00;-2.10;99.90
8565;DHT22;4320;51.498;6.556;2022-12-18T02:28:31;-2.00;99.90
8565;DHT22;4320;51.498;6.556;2022-12-18T02:31:00;-2.00;99.90
8565;DHT22;4320;51.498;6.556;2022-12-18T02:33:28;-2.00;99.90
8565;DHT22;4320;51.498;6.556;2022-12-18T02:35:56;-2.00;99.90
8565;DHT22;4320;51.498;6.556;2022-12-18T02:38:23;-2.00;99.90
8565;DHT22;4320;51.498;6.556;2022-12-18T02:40:51;-1.90;99.90
8565;DHT22;4320;51.498;6.556;2022-12-18T02:43:18;-1.90;99.90
8565;DHT22;4320;51.498;6.556;2022-12-18T02:45:54;-1.90;99.90
8565;DHT22;4320;51.498;6.556;2022-12-18T02:48:24;-1.90;99.90
8565;DHT22;4320;51.498;6.556;2022-12-18T02:51:23;-1.90;99.90
8565;DHT22;4320;51.498;6.556;2022-12-18T02:54:09;-1.90;99.90
8565;DHT22;4320;51.498;6.556;2022-12-18T02:56:41;-2.00;99.90
8565;DHT22;4320;51.498;6.556;2022-12-18T02:59:30;-2.00;99.90
8565;DHT22;4320;51.498;6.556;2022-12-18T03:04:44;-1.90;99.90
8565;DHT22;4320;51.498;6.556;2022-12-18T03:07:18;-2.00;99.90
8565;DHT22;4320;51.498;6.556;2022-12-18T03:09:49;-2.00;99.90
8565;DHT22;4320;51.498;6.556;2022-12-18T03:12:24;-2.00;99.90
8565;DHT22;4320;51.498;6.556;2022-12-18T03:17:27;-1.80;99.90
8565;DHT22;4320;51.498;6.556;2022-12-18T03:19:56;-1.90;99.90
8565;DHT22;4320;51.498;6.556;2022-12-18T03:22:27;-1.80;99.90
8565;DHT22;4320;51.498;6.556;2022-12-18T03:24:56;-1.80;99.90
8565;DHT22;4320;51.498;6.556;2022-12-18T03:27:24;-1.80;99.90
8565;DHT22;4320;51.498;6.556;2022-12-18T03:30:03;-1.80;99.90
8565;DHT22;4320;51.498;6.556;2022-12-18T03:32:39;-1.80;99.90
8565;DHT22;4320;51.498;6.556;2022-12-18T03:35:07;-1.80;99.90
8565;DHT22;4320;51.498;6.556;2022-12-18T03:37:34;-1.80;99.90
8565;DHT22;4320;51.498;6.556;2022-12-18T03:40:00;-1.80;99.90
8565;DHT22;4320;51.498;6.556;2022-12-18T03:42:34;-1.80;99.90
8565;DHT22;4320;51.498;6.556;2022-12-18T03:53:39;-1.70;99.90
8565;DHT22;4320;51.498;6.556;2022-12-18T03:56:08;-1.70;99.90
8565;DHT22;4320;51.498;6.556;2022-12-18T03:58:37;-1.70;99.90
8565;DHT22;4320;51.498;6.556;2022-12-18T04:01:05;-1.70;99.90
8565;DHT22;4320;51.498;6.556;2022-12-18T04:03:34;-1.70;99.90
8565;DHT22;4320;51.498;6.556;2022-12-18T04:06:01;-1.60;99.90
8565;DHT22;4320;51.498;6.556;2022-12-18T04:08:28;-1.60;99.90
8565;DHT22;4320;51.498;6.556;2022-12-18T04:10:54;-1.60;99.90
8565;DHT22;4320;51.498;6.556;2022-12-18T04:13:35;-1.60;99.90
8565;DHT22;4320;51.498;6.556;2022-12-18T04:16:01;-1.50;99.90
8565;DHT22;4320;51.498;6.556;2022-12-18T04:18:27;-1.50;99.90
8565;DHT22;4320;51.498;6.556;2022-12-18T04:20:53;-1.60;99.90
8565;DHT22;4320;51.498;6.556;2022-12-18T04:23:18;-1.60;99.90
8565;DHT22;4320;51.498;6.556;2022-12-18T04:25:44;-1.50;99.90
8565;DHT22;4320;51.498;6.556;2022-12-18T04:28:10;-1.50;99.90
8565;DHT22;4320;51.498;6.556;2022-12-18T04:30:36;-1.50;99.90
8565;DHT22;4320;51.498;6.556;2022-12-18T04:33:01;-1.40;99.90
8565;DHT22;4320;51.498;6.556;2022-12-18T04:35:27;-1.40;99.90
8565;DHT22;4320;51.498;6.556;2022-12-18T04:37:53;-1.50;99.90
8565;DHT22;4320;51.498;6.556;2022-12-18T04:40:18;-1.40;99.90
8565;DHT22;4320;51.498;6.556;2022-12-18T04:42:44;-1.40;99.90
8565;DHT22;4320;51.498;6.556;2022-12-18T04:45:10;-1.40;99.90
8565;DHT22;4320;51.498;6.556;2022-12-18T04:47:35;-1.40;99.90
8565;DHT22;4320;51.498;6.556;2022-12-18T04:50:01;-1.40;99.90
8565;DHT22;4320;51.498;6.556;2022-12-18T04:52:26;-1.40;99.90
8565;DHT22;4320;51.498;6.556;2022-12-18T04:54:52;-1.40;99.90
8565;DHT22;4320;51.498;6.556;2022-12-18T04:57:18;-1.30;99.90
8565;DHT22;4320;51.498;6.556;2022-12-18T04:59:44;-1.30;99.90
8565;DHT22;4320;51.498;6.556;2022-12-18T05:02:10;-1.40;99.90
8565;DHT22;4320;51.498;6.556;2022-12-18T05:04:35;-1.40;99.90
8565;DHT22;4320;51.498;6.556;2022-12-18T05:07:01;-1.40;99.90
8565;DHT22;4320;51.498;6.556;2022-12-18T05:09:27;-1.40;99.90
8565;DHT22;4320;51.498;6.556;2022-12-18T05:11:52;-1.40;99.90
8565;DHT22;4320;51.498;6.556;2022-12-18T05:14:21;-1.30;99.90
8565;DHT22;4320;51.498;6.556;2022-12-18T05:16:47;-1.40;99.90
8565;DHT22;4320;51.498;6.556;2022-12-18T05:19:13;-1.40;99.90
8565;DHT22;4320;51.498;6.556;2022-12-18T05:21:38;-1.40;99.90
8565;DHT22;4320;51.498;6.556;2022-12-18T05:24:04;-1.40;99.90
8565;DHT22;4320;51.498;6.556;2022-12-18T05:26:30;-1.40;99.90
8565;DHT22;4320;51.498;6.556;2022-12-18T05:28:56;-1.40;99.90
8565;DHT22;4320;51.498;6.556;2022-12-18T05:31:21;-1.40;99.90
8565;DHT22;4320;51.498;6.556;2022-12-18T05:33:47;-1.50;99.90
8565;DHT22;4320;51.498;6.556;2022-12-18T05:36:16;-1.40;99.90
8565;DHT22;4320;51.498;6.556;2022-12-18T05:38:41;-1.40;99.90
8565;DHT22;4320;51.498;6.556;2022-12-18T05:41:08;-1.40;99.90
8565;DHT22;4320;51.498;6.556;2022-12-18T05:43:36;-1.30;99.90
8565;DHT22;4320;51.498;6.556;2022-12-18T05:46:06;-1.40;99.90
8565;DHT22;4320;51.498;6.556;2022-12-18T05:48:33;-1.40;99.90
8565;DHT22;4320;51.498;6.556;2022-12-18T05:51:05;-1.30;99.90
8565;DHT22;4320;51.498;6.556;2022-12-18T05:53:31;-1.30;99.90
8565;DHT22;4320;51.498;6.556;2022-12-18T05:56:00;-1.40;99.90
8565;DHT22;4320;51.498;6.556;2022-12-18T05:58:26;-1.30;99.90
8565;DHT22;4320;51.498;6.556;2022-12-18T06:00:52;-1.30;99.90
8565;DHT22;4320;51.498;6.556;2022-12-18T06:03:18;-1.30;99.90
8565;DHT22;4320;51.498;6.556;2022-12-18T06:05:44;-1.20;99.90
8565;DHT22;4320;51.498;6.556;2022-12-18T06:08:11;-1.30;99.90
8565;DHT22;4320;51.498;6.556;2022-12-18T06:10:41;-1.20;99.90
8565;DHT22;4320;51.498;6.556;2022-12-18T06:13:07;-1.20;99.90
8565;DHT22;4320;51.498;6.556;2022-12-18T06:15:35;-1.20;99.90
8565;DHT22;4320;51.498;6.556;2022-12-18T06:18:01;-1.20;99.90
8565;DHT22;4320;51.498;6.556;2022-12-18T06:20:26;-1.20;99.90
8565;DHT22;4320;51.498;6.556;2022-12-18T06:22:52;-1.20;99.90
8565;DHT22;4320;51.498;6.556;2022-12-18T06:25:18;-1.30;99.90
8565;DHT22;4320;51.498;6.556;2022-12-18T06:27:44;-1.30;99.90
8565;DHT22;4320;51.498;6.556;2022-12-18T06:30:10;-1.30;99.90
8565;DHT22;4320;51.498;6.556;2022-12-18T06:32:36;-1.30;99.90
8565;DHT22;4320;51.498;6.556;2022-12-18T06:35:01;-1.50;99.90
8565;DHT22;4320;51.498;6.556;2022-12-18T06:37:28;-1.40;99.90
8565;DHT22;4320;51.498;6.556;2022-12-18T06:39:54;-1.40;99.90
8565;DHT22;4320;51.498;6.556;2022-12-18T06:42:19;-1.50;99.90
8565;DHT22;4320;51.498;6.556;2022-12-18T06:44:47;-1.60;99.90
8565;DHT22;4320;51.498;6.556;2022-12-18T06:47:13;-1.60;99.90
8565;DHT22;4320;51.498;6.556;2022-12-18T06:49:39;-1.60;99.90
8565;DHT22;4320;51.498;6.556;2022-12-18T06:52:04;-1.60;99.90
8565;DHT22;4320;51.498;6.556;2022-12-18T06:54:30;-1.60;99.90
8565;DHT22;4320;51.498;6.556;2022-12-18T06:56:55;-1.50;99.90
8565;DHT22;4320;51.498;6.556;2022-12-18T06:59:21;-1.50;99.90
8565;DHT22;4320;51.498;6.556;2022-12-18T07:01:47;-1.60;99.90
8565;DHT22;4320;51.498;6.556;2022-12-18T07:04:13;-1.60;99.90
8565;DHT22;4320;51.498;6.556;2022-12-18T07:06:38;-1.60;99.90
8565;DHT22;4320;51.498;6.556;2022-12-18T07:09:04;-1.60;99.90
8565;DHT22;4320;51.498;6.556;2022-12-18T07:11:32;-1.60;99.90
8565;DHT22;4320;51.498;6.556;2022-12-18T07:13:58;-1.60;99.90
8565;DHT22;4320;51.498;6.556;2022-12-18T07:16:26;-1.60;99.90
8565;DHT22;4320;51.498;6.556;2022-12-18T07:18:55;-1.70;99.90
8565;DHT22;4320;51.498;6.556;2022-12-18T07:21:21;-1.70;99.90
8565;DHT22;4320;51.498;6.556;2022-12-18T07:23:47;-1.60;99.90
8565;DHT22;4320;51.498;6.556;2022-12-18T07:26:15;-1.60;99.90
8565;DHT22;4320;51.498;6.556;2022-12-18T07:28:42;-1.50;99.90
8565;DHT22;4320;51.498;6.556;2022-12-18T07:31:10;-1.50;99.90
8565;DHT22;4320;51.498;6.556;2022-12-18T07:33:36;-1.50;99.90
8565;DHT22;4320;51.498;6.556;2022-12-18T07:36:03;-1.50;99.90
8565;DHT22;4320;51.498;6.556;2022-12-18T07:38:30;-1.50;99.90
8565;DHT22;4320;51.498;6.556;2022-12-18T07:41:03;-1.40;99.90
8565;DHT22;4320;51.498;6.556;2022-12-18T07:43:30;-1.40;99.90
8565;DHT22;4320;51.498;6.556;2022-12-18T07:45:55;-1.50;99.90
8565;DHT22;4320;51.498;6.556;2022-12-18T07:48:21;-1.40;99.90
8565;DHT22;4320;51.498;6.556;2022-12-18T07:50:46;-1.30;99.90
8565;DHT22;4320;51.498;6.556;2022-12-18T07:53:12;-1.30;99.90
8565;DHT22;4320;51.498;6.556;2022-12-18T07:55:38;-1.30;99.90
8565;DHT22;4320;51.498;6.556;2022-12-18T07:58:04;-1.20;99.90
8565;DHT22;4320;51.498;6.556;2022-12-18T08:00:30;-1.30;99.90
8565;DHT22;4320;51.498;6.556;2022-12-18T08:02:56;-1.20;99.90
8565;DHT22;4320;51.498;6.556;2022-12-18T08:05:22;-1.20;99.90
8565;DHT22;4320;51.498;6.556;2022-12-18T08:07:48;-1.20;99.90
8565;DHT22;4320;51.498;6.556;2022-12-18T08:10:13;-1.20;99.90
8565;DHT22;4320;51.498;6.556;2022-12-18T08:12:39;-1.10;99.90
8565;DHT22;4320;51.498;6.556;2022-12-18T08:15:05;-1.10;99.90
8565;DHT22;4320;51.498;6.556;2022-12-18T08:17:31;-1.10;99.90
8565;DHT22;4320;51.498;6.556;2022-12-18T08:19:57;-1.10;99.90
8565;DHT22;4320;51.498;6.556;2022-12-18T08:22:22;-1.00;99.90
8565;DHT22;4320;51.498;6.556;2022-12-18T08:24:48;-0.90;99.90
8565;DHT22;4320;51.498;6.556;2022-12-18T08:27:13;-0.80;99.90
8565;DHT22;4320;51.498;6.556;2022-12-18T08:29:39;-0.70;99.90
8565;DHT22;4320;51.498;6.556;2022-12-18T08:32:05;-0.80;99.90
8565;DHT22;4320;51.498;6.556;2022-12-18T08:34:30;-0.60;99.90
8565;DHT22;4320;51.498;6.556;2022-12-18T08:36:56;-0.50;99.90
8565;DHT22;4320;51.498;6.556;2022-12-18T08:39:22;-0.40;99.90
8565;DHT22;4320;51.498;6.556;2022-12-18T08:41:47;-0.60;99.90
8565;DHT22;4320;51.498;6.556;2022-12-18T08:44:33;-0.30;99.90
8565;DHT22;4320;51.498;6.556;2022-12-18T08:47:05;-0.20;99.90
8565;DHT22;4320;51.498;6.556;2022-12-18T08:49:32;-0.20;99.90
8565;DHT22;4320;51.498;6.556;2022-12-18T08:51:57;-0.10;99.90
8565;DHT22;4320;51.498;6.556;2022-12-18T08:54:24;-0.10;99.90
8565;DHT22;4320;51.498;6.556;2022-12-18T08:56:50;-0.10;99.90
8565;DHT22;4320;51.498;6.556;2022-12-18T08:59:19;0.00;99.90
8565;DHT22;4320;51.498;6.556;2022-12-18T09:01:45;0.10;99.90
8565;DHT22;4320;51.498;6.556;2022-12-18T09:04:12;0.10;99.90
8565;DHT22;4320;51.498;6.556;2022-12-18T09:06:39;0.10;99.90
8565;DHT22;4320;51.498;6.556;2022-12-18T09:09:05;0.10;99.90
8565;DHT22;4320;51.498;6.556;2022-12-18T09:11:32;0.20;99.90
8565;DHT22;4320;51.498;6.556;2022-12-18T09:14:00;0.20;99.90
8565;DHT22;4320;51.498;6.556;2022-12-18T09:16:27;0.30;99.90
8565;DHT22;4320;51.498;6.556;2022-12-18T09:18:55;0.30;99.90
8565;DHT22;4320;51.498;6.556;2022-12-18T09:21:26;0.30;99.90
8565;DHT22;4320;51.498;6.556;2022-12-18T09:23:55;0.20;99.90
8565;DHT22;4320;51.498;6.556;2022-12-18T09:26:22;0.30;99.90
8565;DHT22;4320;51.498;6.556;2022-12-18T09:28:48;0.30;99.90
8565;DHT22;4320;51.498;6.556;2022-12-18T09:31:19;0.50;99.90
8565;DHT22;4320;51.498;6.556;2022-12-18T09:33:45;0.50;99.90
8565;DHT22;4320;51.498;6.556;2022-12-18T09:36:12;0.60;99.90
8565;DHT22;4320;51.498;6.556;2022-12-18T09:38:39;0.60;98.20
8565;DHT22;4320;51.498;6.556;2022-12-18T09:43:54;0.70;96.00
8565;DHT22;4320;51.498;6.556;2022-12-18T09:46:30;0.80;94.10
8565;DHT22;4320;51.498;6.556;2022-12-18T09:49:00;0.80;92.30
8565;DHT22;4320;51.498;6.556;2022-12-18T09:51:30;0.80;91.20
8565;DHT22;4320;51.498;6.556;2022-12-18T09:54:06;0.80;90.00
8565;DHT22;4320;51.498;6.556;2022-12-18T09:56:37;0.90;88.20
8565;DHT22;4320;51.498;6.556;2022-12-18T09:59:04;0.90;83.50
8565;DHT22;4320;51.498;6.556;2022-12-18T10:01:31;0.90;83.60
8565;DHT22;4320;51.498;6.556;2022-12-18T10:03:58;0.90;80.70
8565;DHT22;4320;51.498;6.556;2022-12-18T10:15:12;1.30;69.00
8565;DHT22;4320;51.498;6.556;2022-12-18T10:23:33;1.30;62.20
8565;DHT22;4320;51.498;6.556;2022-12-18T10:26:10;1.40;60.70
8565;DHT22;4320;51.498;6.556;2022-12-18T10:28:39;1.50;57.80
8565;DHT22;4320;51.498;6.556;2022-12-18T10:31:16;1.50;55.60
8565;DHT22;4320;51.498;6.556;2022-12-18T10:33:42;1.50;50.70
8565;DHT22;4320;51.498;6.556;2022-12-18T10:36:08;1.60;48.80
8565;DHT22;4320;51.498;6.556;2022-12-18T10:38:34;1.70;45.70
8565;DHT22;4320;51.498;6.556;2022-12-18T10:43:43;1.80;41.20
8565;DHT22;4320;51.498;6.556;2022-12-18T10:51:30;2.00;33.30
8565;DHT22;4320;51.498;6.556;2022-12-18T10:54:13;2.00;29.40
8565;DHT22;4320;51.498;6.556;2022-12-18T10:56:40;1.90;28.20
8565;DHT22;4320;51.498;6.556;2022-12-18T10:59:10;1.90;25.50
8565;DHT22;4320;51.498;6.556;2022-12-18T11:01:53;1.90;25.20
8565;DHT22;4320;51.498;6.556;2022-12-18T11:04:34;1.90;25.50
8565;DHT22;4320;51.498;6.556;2022-12-18T11:07:02;1.80;24.30
8565;DHT22;4320;51.498;6.556;2022-12-18T11:09:28;1.90;24.50
8565;DHT22;4320;51.498;6.556;2022-12-18T11:11:59;2.00;24.00
8565;DHT22;4320;51.498;6.556;2022-12-18T11:14:33;1.90;21.10
8565;DHT22;4320;51.498;6.556;2022-12-18T11:17:00;2.00;20.70
8565;DHT22;4320;51.498;6.556;2022-12-18T11:21:58;2.00;19.70
8565;DHT22;4320;51.498;6.556;2022-12-18T11:26:49;2.00;18.30
8565;DHT22;4320;51.498;6.556;2022-12-18T11:29:33;2.10;18.60
8565;DHT22;4320;51.498;6.556;2022-12-18T11:34:42;2.20;18.00
8565;DHT22;4320;51.498;6.556;2022-12-18T11:37:12;2.20;17.50
8565;DHT22;4320;51.498;6.556;2022-12-18T11:39:50;2.30;17.40
8565;DHT22;4320;51.498;6.556;2022-12-18T11:42:18;2.20;16.70
8565;DHT22;4320;51.498;6.556;2022-12-18T11:45:01;2.20;15.90
8565;DHT22;4320;51.498;6.556;2022-12-18T11:50:02;2.30;15.80
8565;DHT22;4320;51.498;6.556;2022-12-18T11:52:36;2.20;15.50
8565;DHT22;4320;51.498;6.556;2022-12-18T11:55:12;2.20;14.60
8565;DHT22;4320;51.498;6.556;2022-12-18T12:00:15;2.10;12.90
8565;DHT22;4320;51.498;6.556;2022-12-18T12:03:09;2.10;13.50
8565;DHT22;4320;51.498;6.556;2022-12-18T12:05:57;2.20;14.80
8565;DHT22;4320;51.498;6.556;2022-12-18T12:09:11;2.20;13.40
8565;DHT22;4320;51.498;6.556;2022-12-18T12:19:24;2.20;11.10
8565;DHT22;4320;51.498;6.556;2022-12-18T12:30:23;2.10;10.30
8565;DHT22;4320;51.498;6.556;2022-12-18T12:33:22;2.00;9.00
8565;DHT22;4320;51.498;6.556;2022-12-18T12:36:01;1.90;8.20
8565;DHT22;4320;51.498;6.556;2022-12-18T12:38:46;2.10;9.20
8565;DHT22;4320;51.498;6.556;2022-12-18T12:41:19;2.00;8.40
8565;DHT22;4320;51.498;6.556;2022-12-18T12:44:08;2.10;8.40
8565;DHT22;4320;51.498;6.556;2022-12-18T12:46:38;2.20;10.90
8565;DHT22;4320;51.498;6.556;2022-12-18T12:49:14;2.20;7.10
8565;DHT22;4320;51.498;6.556;2022-12-18T12:51:43;2.20;7.40
8565;DHT22;4320;51.498;6.556;2022-12-18T12:54:19;2.20;7.50
8565;DHT22;4320;51.498;6.556;2022-12-18T12:57:12;2.20;8.40
8565;DHT22;4320;51.498;6.556;2022-12-18T13:02:33;2.20;6.70
8565;DHT22;4320;51.498;6.556;2022-12-18T13:05:21;2.20;5.20
8565;DHT22;4320;51.498;6.556;2022-12-18T13:07:56;2.20;5.70
8565;DHT22;4320;51.498;6.556;2022-12-18T13:10:25;2.10;5.10
8565;DHT22;4320;51.498;6.556;2022-12-18T13:12:56;2.10;5.00
8565;DHT22;4320;51.498;6.556;2022-12-18T13:15:34;2.10;5.50
8565;DHT22;4320;51.498;6.556;2022-12-18T13:18:23;2.00;8.60
8565;DHT22;4320;51.498;6.556;2022-12-18T13:28:21;2.10;4.50
8565;DHT22;4320;51.498;6.556;2022-12-18T13:30:56;2.00;4.30
8565;DHT22;4320;51.498;6.556;2022-12-18T13:38:23;2.10;4.20
8565;DHT22;4320;51.498;6.556;2022-12-18T13:40:59;2.00;4.00
8565;DHT22;4320;51.498;6.556;2022-12-18T13:43:33;2.00;3.70
8565;DHT22;4320;51.498;6.556;2022-12-18T13:49:20;1.90;3.90
8565;DHT22;4320;51.498;6.556;2022-12-18T13:51:49;1.90;4.40
8565;DHT22;4320;51.498;6.556;2022-12-18T13:54:35;1.70;3.20
8565;DHT22;4320;51.498;6.556;2022-12-18T13:57:03;1.80;3.20
8565;DHT22;4320;51.498;6.556;2022-12-18T13:59:38;1.80;2.20
8565;DHT22;4320;51.498;6.556;2022-12-18T14:02:14;1.80;1.70
8565;DHT22;4320;51.498;6.556;2022-12-18T14:04:40;1.80;3.00
8565;DHT22;4320;51.498;6.556;2022-12-18T14:07:09;1.70;2.90
8565;DHT22;4320;51.498;6.556;2022-12-18T14:09:39;1.70;3.10
8565;DHT22;4320;51.498;6.556;2022-12-18T14:12:06;1.70;3.00
8565;DHT22;4320;51.498;6.556;2022-12-18T14:14:51;1.70;3.60
8565;DHT22;4320;51.498;6.556;2022-12-18T14:17:18;1.70;2.50
8565;DHT22;4320;51.498;6.556;2022-12-18T14:19:47;1.70;4.30
8565;DHT22;4320;51.498;6.556;2022-12-18T14:22:22;1.70;4.20
8565;DHT22;4320;51.498;6.556;2022-12-18T14:27:41;1.80;4.90
8565;DHT22;4320;51.498;6.556;2022-12-18T14:33:00;1.70;3.70
8565;DHT22;4320;51.498;6.556;2022-12-18T14:35:26;1.80;3.50
8565;DHT22;4320;51.498;6.556;2022-12-18T14:37:51;1.70;3.40
8565;DHT22;4320;51.498;6.556;2022-12-18T14:40:17;1.60;3.90
8565;DHT22;4320;51.498;6.556;2022-12-18T14:42:42;1.70;3.60
8565;DHT22;4320;51.498;6.556;2022-12-18T14:45:37;1.70;4.30
8565;DHT22;4320;51.498;6.556;2022-12-18T14:50:45;1.70;2.20
8565;DHT22;4320;51.498;6.556;2022-12-18T14:53:22;1.70;3.00
8565;DHT22;4320;51.498;6.556;2022-12-18T14:55:49;1.60;2.00
8565;DHT22;4320;51.498;6.556;2022-12-18T14:58:17;1.70;1.70
8565;DHT22;4320;51.498;6.556;2022-12-18T15:00:43;1.70;1.20
8565;DHT22;4320;51.498;6.556;2022-12-18T15:03:09;1.70;1.50
8565;DHT22;4320;51.498;6.556;2022-12-18T15:05:35;1.60;1.20
8565;DHT22;4320;51.498;6.556;2022-12-18T15:08:02;1.60;1.00
8565;DHT22;4320;51.498;6.556;2022-12-18T15:10:31;1.70;1.00
8565;DHT22;4320;51.498;6.556;2022-12-18T15:23:23;1.70;2.70
8565;DHT22;4320;51.498;6.556;2022-12-18T15:26:20;1.70;3.80
8565;DHT22;4320;51.498;6.556;2022-12-18T15:28:52;1.60;4.90
8565;DHT22;4320;51.498;6.556;2022-12-18T15:31:33;1.60;4.90
8565;DHT22;4320;51.498;6.556;2022-12-18T15:34:10;1.60;6.00
8565;DHT22;4320;51.498;6.556;2022-12-18T15:36:37;1.60;6.30
8565;DHT22;4320;51.498;6.556;2022-12-18T15:39:04;1.60;5.40
8565;DHT22;4320;51.498;6.556;2022-12-18T15:41:32;1.60;6.00
8565;DHT22;4320;51.498;6.556;2022-12-18T15:43:58;1.60;6.40
8565;DHT22;4320;51.498;6.556;2022-12-18T15:46:25;1.60;7.00
8565;DHT22;4320;51.498;6.556;2022-12-18T15:48:56;1.70;7.00
8565;DHT22;4320;51.498;6.556;2022-12-18T15:53:56;1.50;6.70
8565;DHT22;4320;51.498;6.556;2022-12-18T15:56:22;1.60;7.40
8565;DHT22;4320;51.498;6.556;2022-12-18T15:59:16;1.60;8.20
8565;DHT22;4320;51.498;6.556;2022-12-18T16:01:43;1.50;7.10
8565;DHT22;4320;51.498;6.556;2022-12-18T16:04:14;1.50;7.60
8565;DHT22;4320;51.498;6.556;2022-12-18T16:06:40;1.50;7.20
8565;DHT22;4320;51.498;6.556;2022-12-18T16:09:06;1.50;8.10
8565;DHT22;4320;51.498;6.556;2022-12-18T16:11:34;1.50;9.10
8565;DHT22;4320;51.498;6.556;2022-12-18T16:14:18;1.50;9.20
8565;DHT22;4320;51.498;6.556;2022-12-18T16:16:46;1.50;9.60
8565;DHT22;4320;51.498;6.556;2022-12-18T16:19:12;1.40;10.20
8565;DHT22;4320;51.498;6.556;2022-12-18T16:21:38;1.40;11.40
8565;DHT22;4320;51.498;6.556;2022-12-18T16:24:04;1.50;10.60
8565;DHT22;4320;51.498;6.556;2022-12-18T16:26:30;1.40;12.20
8565;DHT22;4320;51.498;6.556;2022-12-18T16:28:58;1.40;12.20
8565;DHT22;4320;51.498;6.556;2022-12-18T16:31:24;1.40;13.90
8565;DHT22;4320;51.498;6.556;2022-12-18T16:33:49;1.40;14.10
8565;DHT22;4320;51.498;6.556;2022-12-18T16:36:34;1.40;13.70
8565;DHT22;4320;51.498;6.556;2022-12-18T16:39:03;1.40;15.70
8565;DHT22;4320;51.498;6.556;2022-12-18T16:41:29;1.40;15.10
8565;DHT22;4320;51.498;6.556;2022-12-18T16:43:58;1.40;16.40
8565;DHT22;4320;51.498;6.556;2022-12-18T16:46:23;1.40;16.80
8565;DHT22;4320;51.498;6.556;2022-12-18T16:48:49;1.30;17.80
8565;DHT22;4320;51.498;6.556;2022-12-18T16:51:15;1.30;18.90
8565;DHT22;4320;51.498;6.556;2022-12-18T16:53:41;1.30;20.00
8565;DHT22;4320;51.498;6.556;2022-12-18T16:56:06;1.20;21.30
8565;DHT22;4320;51.498;6.556;2022-12-18T16:58:32;1.20;22.50
8565;DHT22;4320;51.498;6.556;2022-12-18T17:00:58;1.20;23.30
8565;DHT22;4320;51.498;6.556;2022-12-18T17:03:24;1.30;24.80
8565;DHT22;4320;51.498;6.556;2022-12-18T17:05:50;1.30;25.40
8565;DHT22;4320;51.498;6.556;2022-12-18T17:08:15;1.20;26.20
8565;DHT22;4320;51.498;6.556;2022-12-18T17:10:41;1.30;27.90
8565;DHT22;4320;51.498;6.556;2022-12-18T17:13:06;1.30;28.90
8565;DHT22;4320;51.498;6.556;2022-12-18T17:15:35;1.30;29.00
8565;DHT22;4320;51.498;6.556;2022-12-18T17:18:02;1.30;29.80
8565;DHT22;4320;51.498;6.556;2022-12-18T17:20:29;1.30;30.80
8565;DHT22;4320;51.498;6.556;2022-12-18T17:22:55;1.20;32.20
8565;DHT22;4320;51.498;6.556;2022-12-18T17:25:23;1.20;33.90
8565;DHT22;4320;51.498;6.556;2022-12-18T17:27:50;1.30;34.40
8565;DHT22;4320;51.498;6.556;2022-12-18T17:30:15;1.30;35.50
8565;DHT22;4320;51.498;6.556;2022-12-18T17:32:41;1.30;37.60
8565;DHT22;4320;51.498;6.556;2022-12-18T17:35:07;1.20;39.80
8565;DHT22;4320;51.498;6.556;2022-12-18T17:37:33;1.20;39.30
8565;DHT22;4320;51.498;6.556;2022-12-18T17:39:59;1.30;42.30
8565;DHT22;4320;51.498;6.556;2022-12-18T17:42:24;1.20;43.00
8565;DHT22;4320;51.498;6.556;2022-12-18T17:44:50;1.20;44.50
8565;DHT22;4320;51.498;6.556;2022-12-18T17:47:17;1.20;44.90
8565;DHT22;4320;51.498;6.556;2022-12-18T17:49:42;1.20;46.00
8565;DHT22;4320;51.498;6.556;2022-12-18T17:52:08;1.20;49.00
8565;DHT22;4320;51.498;6.556;2022-12-18T17:54:34;1.20;48.80
8565;DHT22;4320;51.498;6.556;2022-12-18T17:57:04;1.20;51.10
8565;DHT22;4320;51.498;6.556;2022-12-18T17:59:30;1.20;50.40
8565;DHT22;4320;51.498;6.556;2022-12-18T18:01:55;1.20;53.00
8565;DHT22;4320;51.498;6.556;2022-12-18T18:04:21;1.10;54.60
8565;DHT22;4320;51.498;6.556;2022-12-18T18:06:47;1.10;56.60
8565;DHT22;4320;51.498;6.556;2022-12-18T18:09:13;1.10;56.40
8565;DHT22;4320;51.498;6.556;2022-12-18T18:11:38;1.10;58.40
8565;DHT22;4320;51.498;6.556;2022-12-18T18:14:23;1.10;59.00
8565;DHT22;4320;51.498;6.556;2022-12-18T18:16:50;1.00;62.10
8565;DHT22;4320;51.498;6.556;2022-12-18T18:19:18;1.10;63.50
8565;DHT22;4320;51.498;6.556;2022-12-18T18:21:47;1.10;65.80
8565;DHT22;4320;51.498;6.556;2022-12-18T18:24:14;1.10;66.60